createdAt,value
2023-08-11T00:01:50.174Z,99.90
2023-08-11T00:06:57.064Z,99.90
2023-08-11T00:12:01.331Z,99.90
2023-08-11T00:17:14.943Z,99.90
2023-08-11T00:22:20.453Z,99.90
2023-08-11T00:27:24.858Z,99.90
2023-08-11T00:32:31.091Z,99.90
2023-08-11T00:37:35.512Z,99.90
2023-08-11T00:42:39.763Z,99.90
2023-08-11T00:47:44.572Z,99.90
2023-08-11T00:52:49.433Z,99.90
2023-08-11T00:57:52.894Z,99.90
2023-08-11T01:02:59.860Z,99.90
2023-08-11T01:08:10.439Z,99.90
2023-08-11T01:13:19.504Z,99.90
2023-08-11T01:18:26.155Z,99.90
2023-08-11T01:23:31.962Z,99.90
2023-08-11T01:28:36.601Z,99.90
2023-08-11T01:33:40.604Z,1.00
2023-08-11T01:38:45.959Z,1.00
2023-08-11T01:43:50.687Z,1.00
2023-08-11T01:48:56.260Z,1.00
2023-08-11T01:54:01.494Z,1.00
2023-08-11T01:59:07.845Z,1.00
2023-08-11T02:04:11.753Z,1.00
2023-08-11T02:09:18.764Z,1.00
2023-08-11T02:14:22.924Z,1.00
2023-08-11T02:19:27.856Z,1.00
2023-08-11T02:24:33.625Z,1.00
2023-08-11T02:29:37.490Z,1.00
2023-08-11T02:34:42.697Z,1.00
2023-08-11T02:39:48.255Z,1.00
2023-08-11T02:44:53.378Z,1.00
2023-08-11T02:49:59.298Z,1.00
2023-08-11T02:55:06.683Z,1.00
2023-08-11T03:00:14.530Z,1.00
2023-08-11T03:05:20.237Z,1.00
2023-08-11T03:10:34.733Z,1.00
2023-08-11T03:15:48.406Z,1.00
2023-08-11T03:21:00.494Z,1.00
2023-08-11T03:26:13.428Z,1.00
2023-08-11T03:31:20.449Z,1.00
2023-08-11T03:36:32.720Z,1.00
2023-08-11T03:41:41.171Z,1.00
2023-08-11T03:46:45.201Z,1.00
2023-08-11T03:51:49.575Z,1.00
2023-08-11T03:56:56.450Z,1.00
2023-08-11T04:02:02.660Z,1.00
2023-08-11T04:07:07.800Z,1.00
2023-08-11T04:12:13.025Z,1.00
2023-08-11T04:17:17.750Z,1.00
2023-08-11T04:22:32.950Z,1.00
2023-08-11T04:27:46.294Z,1.00
2023-08-11T04:32:52.572Z,1.00
2023-08-11T04:37:56.239Z,1.00
2023-08-11T04:43:08.083Z,1.00
2023-08-11T04:48:28.827Z,1.00
2023-08-11T04:53:33.549Z,1.00
2023-08-11T04:58:47.664Z,1.00
2023-08-11T05:03:52.451Z,1.00
2023-08-11T05:09:01.600Z,1.00
2023-08-11T05:14:07.278Z,1.00
2023-08-11T05:19:12.034Z,1.00
2023-08-11T05:24:21.110Z,1.00
2023-08-11T05:29:27.667Z,1.00
2023-08-11T05:34:32.249Z,1.00
2023-08-11T05:39:40.432Z,1.00
2023-08-11T05:44:46.115Z,1.00
2023-08-11T05:49:52.913Z,1.00
2023-08-11T05:54:58.466Z,1.00
2023-08-11T06:00:07.704Z,1.00
2023-08-11T06:05:23.261Z,1.00
2023-08-11T06:10:29.372Z,1.00
2023-08-11T06:15:34.130Z,1.00
2023-08-11T06:20:46.909Z,99.90
2023-08-11T06:25:51.017Z,99.90
2023-08-11T06:30:58.446Z,99.90
2023-08-11T06:36:06.623Z,99.90
2023-08-11T06:41:11.090Z,99.90
2023-08-11T06:46:18.712Z,99.90
2023-08-11T06:51:23.742Z,99.90
2023-08-11T06:56:29.016Z,1.00
2023-08-11T07:01:36.482Z,99.90
2023-08-11T07:06:43.462Z,99.90
2023-08-11T07:11:49.661Z,99.90
2023-08-11T07:16:55.071Z,1.00
2023-08-11T07:22:06.204Z,99.90
2023-08-11T07:27:15.770Z,99.90
2023-08-11T07:32:24.227Z,99.90
2023-08-11T07:37:28.936Z,99.90
2023-08-11T07:42:32.541Z,99.90
2023-08-11T07:47:44.737Z,99.90
2023-08-11T07:52:48.484Z,81.60
2023-08-11T07:57:56.215Z,90.10
2023-08-11T08:03:06.379Z,75.20
2023-08-11T08:08:11.673Z,87.00
2023-08-11T08:13:19.756Z,51.60
2023-08-11T08:18:25.210Z,73.70
2023-08-11T08:23:31.071Z,31.50
2023-08-11T08:28:34.610Z,37.60
2023-08-11T08:33:43.599Z,25.60
2023-08-11T08:38:52.774Z,22.50
2023-08-11T08:44:00.044Z,6.10
2023-08-11T08:49:12.277Z,10.30
2023-08-11T08:54:15.882Z,14.10
2023-08-11T08:59:24.224Z,1.00
2023-08-11T09:04:42.674Z,1.00
2023-08-11T09:09:49.895Z,1.00
2023-08-11T09:14:55.053Z,1.00
2023-08-11T09:20:00.389Z,1.00
2023-08-11T09:25:05.142Z,1.00
2023-08-11T09:30:10.916Z,22.50
2023-08-11T09:35:16.273Z,1.00
2023-08-11T09:40:22.450Z,1.00
2023-08-11T09:45:32.657Z,1.00
2023-08-11T09:50:39.598Z,1.00
2023-08-11T09:55:44.311Z,1.00
2023-08-11T10:06:31.009Z,1.00
2023-08-11T10:11:35.807Z,1.00
2023-08-11T10:16:42.383Z,1.00
2023-08-11T10:21:50.160Z,1.00
2023-08-11T10:27:25.545Z,1.00
2023-08-11T10:32:37.061Z,1.00
2023-08-11T10:37:45.979Z,1.00
2023-08-11T10:42:52.223Z,1.00
2023-08-11T10:47:59.552Z,1.00
2023-08-11T10:53:09.309Z,1.00
2023-08-11T10:58:16.501Z,1.00
2023-08-11T11:03:20.736Z,1.00
2023-08-11T11:08:27.325Z,1.00
2023-08-11T11:13:31.842Z,12.50
2023-08-11T11:18:35.472Z,1.00
2023-08-11T11:23:45.478Z,1.00
2023-08-11T11:29:01.724Z,1.00
2023-08-11T11:34:08.231Z,1.00
2023-08-11T11:39:14.984Z,1.00
2023-08-11T11:44:19.599Z,1.00
2023-08-11T11:49:30.038Z,1.00
2023-08-11T11:54:38.853Z,1.00
2023-08-11T11:59:48.783Z,1.00
2023-08-11T12:04:57.166Z,1.00
2023-08-11T12:10:11.592Z,1.00
2023-08-11T12:15:25.987Z,1.00
2023-08-11T12:20:32.162Z,1.00
2023-08-11T12:25:39.418Z,1.00
2023-08-11T12:30:43.089Z,1.00
2023-08-11T12:35:54.710Z,1.00
2023-08-11T12:41:01.218Z,1.00
2023-08-11T12:46:06.742Z,1.00
2023-08-11T12:51:12.348Z,1.00
2023-08-11T12:56:18.541Z,1.00
2023-08-11T13:01:24.189Z,1.00
2023-08-11T13:06:30.396Z,1.00
2023-08-11T13:11:37.230Z,1.00
2023-08-11T13:16:42.695Z,1.00
2023-08-11T13:21:47.986Z,1.00
2023-08-11T13:26:56.077Z,1.00
2023-08-11T13:32:06.113Z,1.00
2023-08-11T13:37:10.226Z,1.00
2023-08-11T13:42:25.540Z,1.00
2023-08-11T13:47:29.866Z,1.00
2023-08-11T13:52:35.703Z,1.00
2023-08-11T13:57:41.517Z,1.00
2023-08-11T14:02:45.562Z,1.00
2023-08-11T14:07:51.016Z,1.00
2023-08-11T14:12:56.495Z,1.00
2023-08-11T14:18:01.346Z,1.00
2023-08-11T14:23:08.985Z,1.00
2023-08-11T14:28:34.665Z,1.00
2023-08-11T14:33:38.588Z,1.00
2023-08-11T14:38:42.718Z,1.00
2023-08-11T14:43:47.722Z,1.00
2023-08-11T14:48:58.199Z,1.00
2023-08-11T14:54:03.614Z,1.00
2023-08-11T14:59:51.908Z,1.00
2023-08-11T15:04:58.663Z,1.00
2023-08-11T15:10:08.540Z,1.00
2023-08-11T15:15:25.308Z,1.00
2023-08-11T15:20:55.530Z,1.00
2023-08-11T15:25:59.075Z,1.00
2023-08-11T15:31:06.001Z,1.00
2023-08-11T15:36:11.968Z,1.00
2023-08-11T15:41:16.068Z,1.00
2023-08-11T15:46:24.131Z,1.00
2023-08-11T15:51:29.722Z,1.00
2023-08-11T15:56:36.238Z,1.00
2023-08-11T16:01:55.842Z,1.00
2023-08-11T16:07:09.684Z,1.00
2023-08-11T16:12:14.843Z,1.00
2023-08-11T16:17:22.450Z,1.00
2023-08-11T16:22:27.333Z,1.00
2023-08-11T16:27:35.590Z,1.00
2023-08-11T16:32:50.697Z,1.00
2023-08-11T16:38:29.665Z,1.00
2023-08-11T16:43:42.676Z,1.00
2023-08-11T16:48:48.345Z,1.00
2023-08-11T16:53:52.120Z,1.00
2023-08-11T16:58:57.158Z,1.00
2023-08-11T17:04:07.339Z,1.00
2023-08-11T17:09:17.690Z,1.00
2023-08-11T17:14:22.299Z,1.00
2023-08-11T17:19:27.787Z,1.00
2023-08-11T17:24:33.586Z,1.00
2023-08-11T17:29:38.222Z,1.00
2023-08-11T17:34:56.591Z,1.00
2023-08-11T17:40:06.850Z,1.00
2023-08-11T17:45:24.424Z,1.00
2023-08-11T17:50:41.522Z,1.00
2023-08-11T17:55:47.907Z,46.50
2023-08-11T18:06:14.558Z,32.00
2023-08-11T18:11:24.412Z,1.00
2023-08-11T18:22:52.617Z,1.00
2023-08-11T18:27:57.789Z,1.00
2023-08-11T18:33:17.388Z,1.00
2023-08-11T18:39:04.572Z,1.00
2023-08-11T18:44:38.403Z,1.00
2023-08-11T18:50:08.976Z,1.00
2023-08-11T18:55:43.852Z,1.00
2023-08-11T19:00:50.576Z,1.00
2023-08-11T19:05:56.753Z,1.00
2023-08-11T19:11:04.717Z,1.00
2023-08-11T19:16:16.169Z,1.00
2023-08-11T19:21:22.550Z,1.00
2023-08-11T19:26:34.298Z,13.40
2023-08-11T19:31:42.683Z,32.70
2023-08-11T19:36:52.800Z,62.50
2023-08-11T19:42:12.439Z,60.10
2023-08-11T19:47:16.608Z,81.80
2023-08-11T19:52:26.703Z,90.90
2023-08-11T19:57:35.911Z,96.40
2023-08-11T20:02:41.691Z,99.90
2023-08-11T20:07:46.541Z,99.90
2023-08-11T20:12:51.973Z,99.90
2023-08-11T20:17:55.363Z,99.90
2023-08-11T20:23:00.148Z,99.90
2023-08-11T20:28:06.345Z,99.90
2023-08-11T20:33:10.809Z,99.90
2023-08-11T20:38:15.492Z,99.90
2023-08-11T20:43:23.640Z,99.90
2023-08-11T20:48:27.146Z,99.90
2023-08-11T20:53:30.422Z,99.90
2023-08-11T20:58:35.679Z,99.90
2023-08-11T21:03:41.634Z,99.90
2023-08-11T21:08:46.879Z,99.90
2023-08-11T21:13:53.676Z,99.90
2023-08-11T21:18:58.404Z,1.00
2023-08-11T21:24:02.158Z,99.90
2023-08-11T21:29:17.942Z,99.90
2023-08-11T21:34:24.995Z,99.90
2023-08-11T21:39:34.663Z,99.90
2023-08-11T21:44:40.655Z,99.90
2023-08-11T21:49:47.401Z,99.90
2023-08-11T21:54:52.636Z,99.90
2023-08-11T21:59:59.107Z,99.90
2023-08-11T22:05:02.532Z,99.90
2023-08-11T22:10:07.168Z,99.90
2023-08-11T22:15:14.046Z,99.90
2023-08-11T22:20:19.514Z,99.90
2023-08-11T22:25:23.739Z,99.90
2023-08-11T22:30:28.671Z,99.90
2023-08-11T22:35:32.468Z,99.90
2023-08-11T22:40:36.138Z,99.90
2023-08-11T22:45:41.029Z,99.90
2023-08-11T22:50:47.286Z,1.00
2023-08-11T22:55:53.454Z,1.00
2023-08-11T23:00:58.458Z,1.00
2023-08-11T23:06:02.237Z,1.00
2023-08-11T23:11:06.588Z,39.70
2023-08-11T23:16:13.274Z,82.80
2023-08-11T23:21:17.709Z,57.20
2023-08-11T23:26:22.984Z,1.00
2023-08-11T23:31:27.997Z,40.50
2023-08-11T23:36:31.110Z,21.70
2023-08-11T23:41:34.758Z,57.90
2023-08-11T23:46:40.907Z,99.90
2023-08-11T23:51:48.552Z,99.90
2023-08-11T23:56:52.976Z,1.00
